Time;durP1;ratioP1;P1;durP2;ratioP2;P2;SDS_P1;SDS_P2;PMS_P1;PMS_P2;Temp;Humidity;BMP_temperature;BMP_pressure;BME280_temperature;BME280_humidity;BME280_pressure;Samples;Min_cycle;Max_cycle;Signal;HPM_P1;HPM_P2
2022/04/11 00:01:43;;;;;;;7.00;2.00;;;;;;;1.69;65.48;98484.66;105166;1271;74844;-27
2022/04/11 00:04:13;;;;;;;5.00;2.10;;;;;;;1.47;66.17;98484.61;105063;1272;72277;-27
2022/04/11 00:07:02;;;;;;;4.20;2.00;;;;;;;1.22;67.08;98488.30;104967;1271;61737;-27
2022/04/11 00:09:31;;;;;;;6.20;2.30;;;;;;;0.99;67.74;98491.03;105158;1271;61590;-27
2022/04/11 00:12:03;;;;;;;4.50;1.70;;;;;;;0.84;68.37;98485.98;105174;1271;75478;-27
2022/04/11 00:14:32;;;;;;;3.50;1.30;;;;;;;0.71;68.75;98483.34;104910;1272;76086;-27
2022/04/11 00:17:00;;;;;;;4.00;2.10;;;;;;;0.65;68.98;98485.00;105163;1271;74463;-27
2022/04/11 00:19:30;;;;;;;6.00;1.80;;;;;;;0.54;69.44;98482.31;105120;1271;61147;-27
2022/04/11 00:22:11;;;;;;;5.10;2.10;;;;;;;0.50;69.39;98484.23;104913;1271;61131;-27
2022/04/11 00:24:41;;;;;;;5.60;1.10;;;;;;;0.61;69.34;98488.77;104970;1271;75534;-27
2022/04/11 00:27:29;;;;;;;3.30;1.70;;;;;;;1.20;67.20;98487.21;105033;1271;76153;-27
2022/04/11 00:29:59;;;;;;;3.80;1.40;;;;;;;1.40;66.08;98485.16;104961;1271;74220;-27
2022/04/11 00:32:47;;;;;;;3.50;1.60;;;;;;;1.27;66.25;98481.87;104805;1274;61968;-27
2022/04/11 00:35:16;;;;;;;3.90;1.70;;;;;;;1.03;67.05;98480.92;105144;1271;61903;-27
2022/04/11 00:37:45;;;;;;;7.20;2.20;;;;;;;0.93;67.59;98481.91;105140;1270;75510;-27
2022/04/11 00:40:19;;;;;;;6.40;2.00;;;;;;;0.84;68.13;98485.80;104999;1269;76007;-27
2022/04/11 00:42:52;;;;;;;6.10;2.20;;;;;;;0.69;68.57;98484.66;105061;1271;73374;-27
2022/04/11 00:45:20;;;;;;;4.50;2.10;;;;;;;0.56;69.25;98485.30;105018;1271;61537;-26
2022/04/11 00:47:54;;;;;;;5.60;2.10;;;;;;;0.50;69.40;98482.02;104878;1271;61038;-29
2022/04/11 00:50:24;;;;;;;2.30;1.60;;;;;;;0.47;69.84;98485.38;104940;1271;75653;-27
2022/04/11 00:52:54;;;;;;;5.20;1.70;;;;;;;0.85;68.66;98484.05;105019;1271;75818;-27
2022/04/11 00:55:23;;;;;;;7.20;2.10;;;;;;;1.15;67.43;98485.23;105095;1271;74382;-27
2022/04/11 00:57:54;;;;;;;5.70;2.60;;;;;;;1.08;67.45;98481.99;105020;1271;61118;-28
2022/04/11 01:00:23;;;;;;;4.10;2.70;;;;;;;0.88;68.57;98481.48;105087;1271;61795;-28
2022/04/11 01:02:52;;;;;;;4.70;2.60;;;;;;;0.71;69.53;98479.27;104947;1271;77059;-28
2022/04/11 01:05:23;;;;;;;4.00;2.50;;;;;;;0.37;70.84;98479.19;105036;1271;76175;-28
2022/04/11 01:08:07;;;;;;;5.20;2.60;;;;;;;0.22;71.75;98481.64;105003;1271;74399;-28
2022/04/11 01:10:37;;;;;;;6.50;2.70;;;;;;;0.06;72.49;98482.88;104864;1271;61192;-28
2022/04/11 01:13:07;;;;;;;5.50;2.40;;;;;;;-0.04;72.94;98484.04;104905;1271;63302;-28
2022/04/11 01:16:01;;;;;;;5.30;2.30;;;;;;;0.40;71.55;98487.09;105103;1271;75846;-28
2022/04/11 01:18:47;;;;;;;5.90;2.80;;;;;;;0.63;70.64;98490.92;104899;1271;75951;-28
2022/04/11 01:21:16;;;;;;;5.00;2.50;;;;;;;0.53;70.96;98492.77;105123;1271;75359;-28
2022/04/11 01:23:46;;;;;;;4.70;2.70;;;;;;;0.30;71.91;98496.45;104897;1271;61206;-28
2022/04/11 01:26:15;;;;;;;4.10;2.80;;;;;;;0.16;72.60;98494.02;105004;1271;61133;-28
2022/04/11 01:28:45;;;;;;;5.70;3.00;;;;;;;0.03;73.12;98498.27;104896;1271;74628;-28
2022/04/11 01:31:15;;;;;;;5.70;2.80;;;;;;;-0.08;73.58;98498.43;104909;1271;74205;-28
2022/04/11 01:33:44;;;;;;;5.00;2.40;;;;;;;-0.12;73.86;98503.19;105066;1274;74122;-25
2022/04/11 01:36:13;;;;;;;4.90;2.50;;;;;;;0.30;72.40;98498.34;105131;1271;61137;-26
2022/04/11 01:38:42;;;;;;;5.00;2.50;;;;;;;0.56;71.42;98503.40;104949;1274;61240;-28
2022/04/11 01:41:13;;;;;;;6.30;2.50;;;;;;;0.59;70.93;98504.27;104913;1271;75874;-29
2022/04/11 01:43:45;;;;;;;5.80;2.40;;;;;;;0.42;71.50;98503.57;104818;1271;76047;-29
2022/04/11 01:46:14;;;;;;;7.70;2.40;;;;;;;0.30;72.09;98502.08;104752;1274;74701;-28
2022/04/11 01:48:51;;;;;;;4.90;2.60;;;;;;;0.18;72.41;98501.11;105094;1271;61264;-26
2022/04/11 01:51:21;;;;;;;5.70;2.10;;;;;;;0.03;72.91;98494.45;105120;1271;61105;-26
2022/04/11 01:53:50;;;;;;;4.30;2.00;;;;;;;-0.07;73.18;98493.42;105014;1271;74443;-26
2022/04/11 01:56:19;;;;;;;5.80;2.30;;;;;;;0.07;72.84;98492.91;105013;1271;75956;-26
2022/04/11 01:58:48;;;;;;;3.70;2.10;;;;;;;0.52;70.98;98491.78;104878;1272;74589;-28
2022/04/11 02:01:18;;;;;;;8.40;2.60;;;;;;;0.59;70.53;98491.13;104964;1271;62037;-29
2022/04/11 02:03:47;;;;;;;3.30;1.80;;;;;;;0.50;70.50;98490.87;105090;1271;61837;-27
2022/04/11 02:06:16;;;;;;;5.90;2.70;;;;;;;0.42;70.66;98487.67;105178;1271;75932;-29
2022/04/11 02:08:46;;;;;;;2.30;1.80;;;;;;;0.21;71.19;98484.95;105130;1271;74765;-29
2022/04/11 02:11:36;;;;;;;3.50;1.80;;;;;;;0.13;71.52;98489.38;104890;1271;74666;-28
2022/04/11 02:14:09;;;;;;;2.70;1.40;;;;;;;0.02;72.11;98489.05;105016;1271;61164;-29
2022/04/11 02:16:43;;;;;;;2.70;1.20;;;;;;;-0.10;72.89;98490.13;105092;1271;62253;-28
2022/04/11 02:19:13;;;;;;;5.00;2.20;;;;;;;0.28;72.08;98494.30;105148;1271;74518;-28
2022/04/11 02:21:42;;;;;;;5.40;1.80;;;;;;;0.60;70.83;98499.79;104904;1274;74897;-28
2022/04/11 02:24:11;;;;;;;3.20;1.70;;;;;;;0.52;71.31;98496.44;104929;1271;73420;-28
2022/04/11 02:26:42;;;;;;;4.10;1.80;;;;;;;0.25;72.05;98497.89;104830;1271;61095;-28
2022/04/11 02:29:11;;;;;;;4.50;1.80;;;;;;;0.05;72.85;98497.95;104903;1271;61214;-29
2022/04/11 02:31:40;;;;;;;5.70;2.30;;;;;;;-0.11;73.71;98498.70;104907;1271;75569;-28
2022/04/11 02:34:10;;;;;;;2.90;1.70;;;;;;;-0.20;74.16;98503.86;104839;1272;77502;-28
2022/04/11 02:36:39;;;;;;;3.80;1.30;;;;;;;-0.22;74.19;98508.92;104901;1271;74133;-28
2022/04/11 02:39:09;;;;;;;4.90;1.90;;;;;;;-0.28;74.42;98512.94;104785;1271;61678;-28
2022/04/11 02:41:39;;;;;;;3.70;1.80;;;;;;;0.18;72.84;98512.35;104917;1271;62805;-29
2022/04/11 02:44:08;;;;;;;5.30;2.30;;;;;;;0.53;71.40;98516.35;105074;1270;76245;-28
2022/04/11 02:46:38;;;;;;;5.40;2.40;;;;;;;0.39;71.88;98513.23;105129;1272;77651;-28
2022/04/11 02:49:08;;;;;;;3.60;1.80;;;;;;;0.03;73.70;98511.20;105047;1271;74503;-28
2022/04/11 02:51:45;;;;;;;4.70;2.50;;;;;;;-0.12;74.46;98511.02;104762;1271;61086;-27
2022/04/11 02:54:18;;;;;;;3.60;2.30;;;;;;;-0.25;75.03;98512.51;104938;1271;61157;-28
2022/04/11 02:56:48;;;;;;;4.00;2.70;;;;;;;-0.40;75.68;98511.11;104868;1271;74508;-28
2022/04/11 02:59:17;;;;;;;4.40;2.00;;;;;;;-0.32;76.10;98513.81;105023;1271;74015;-28
2022/04/11 03:01:51;;;;;;;5.30;2.80;;;;;;;0.14;74.22;98517.17;105066;1271;75966;-28
2022/04/11 03:04:21;;;;;;;6.00;1.80;;;;;;;0.13;74.06;98520.64;104889;1271;62081;-28
2022/04/11 03:07:00;;;;;;;3.00;1.40;;;;;;;0.00;74.73;98522.43;104890;1271;61054;-27
2022/04/11 03:09:49;;;;;;;6.00;2.80;;;;;;;-0.17;75.45;98524.05;105029;1271;75734;-26
2022/04/11 03:12:20;;;;;;;4.60;2.30;;;;;;;-0.29;75.92;98524.77;105136;1271;75777;-26
2022/04/11 03:15:09;;;;;;;3.60;1.90;;;;;;;-0.41;76.76;98519.17;105082;1271;74589;-26
2022/04/11 03:17:41;;;;;;;2.40;2.10;;;;;;;-0.32;76.81;98515.35;105093;1272;62897;-28
2022/04/11 03:20:11;;;;;;;5.10;2.10;;;;;;;0.04;75.39;98522.42;105154;1274;62100;-26
2022/04/11 03:22:41;;;;;;;8.00;2.60;;;;;;;0.18;74.90;98517.19;105088;1271;75712;-26
2022/04/11 03:25:16;;;;;;;5.40;2.10;;;;;;;-0.03;75.45;98520.70;104949;1271;75988;-28
2022/04/11 03:27:45;;;;;;;4.10;2.00;;;;;;;-0.18;76.30;98518.67;105033;1271;73458;-28
2022/04/11 03:30:17;;;;;;;3.40;2.60;;;;;;;-0.30;76.77;98523.81;105140;1271;60997;-26
2022/04/11 03:32:46;;;;;;;7.20;2.50;;;;;;;-0.48;77.64;98517.29;105165;1271;62060;-27
2022/04/11 03:35:16;;;;;;;6.80;2.30;;;;;;;-0.33;77.48;98518.61;105100;1271;75373;-26
2022/04/11 03:37:45;;;;;;;5.70;2.20;;;;;;;0.06;75.83;98522.64;105098;1271;76089;-27
2022/04/11 03:40:25;;;;;;;5.40;3.10;;;;;;;0.08;75.56;98521.05;105050;1271;74012;-27
2022/04/11 03:42:55;;;;;;;3.20;2.30;;;;;;;0.07;75.43;98527.73;105048;1271;61124;-27
2022/04/11 03:45:25;;;;;;;2.40;2.00;;;;;;;-0.02;75.77;98532.95;105174;1271;61809;-27
2022/04/11 03:47:55;;;;;;;5.80;2.80;;;;;;;-0.14;76.38;98536.36;105133;1271;75933;-27
2022/04/11 03:50:26;;;;;;;5.20;2.80;;;;;;;-0.26;76.94;98535.89;104892;1271;74996;-28
2022/04/11 03:52:55;;;;;;;4.70;2.20;;;;;;;-0.15;76.89;98544.63;105042;1271;74379;-28
2022/04/11 03:55:27;;;;;;;5.70;3.00;;;;;;;0.34;75.10;98545.09;105043;1271;61067;-28
2022/04/11 03:58:16;;;;;;;2.80;2.00;;;;;;;0.48;74.41;98553.30;104933;1271;61831;-27
2022/04/11 04:00:45;;;;;;;5.70;3.30;;;;;;;0.44;74.60;98552.30;105142;1271;75586;-27
2022/04/11 04:03:20;;;;;;;8.70;2.40;;;;;;;0.21;75.49;98558.15;105106;1271;74573;-27
2022/04/11 04:05:54;;;;;;;9.50;2.90;;;;;;;0.07;76.11;98557.27;105143;1271;74253;-27
2022/04/11 04:08:27;;;;;;;4.40;2.50;;;;;;;-0.03;76.52;98550.20;105136;1271;61028;-27
2022/04/11 04:11:10;;;;;;;4.80;2.80;;;;;;;0.10;76.68;98555.40;105145;1271;61227;-27
2022/04/11 04:13:44;;;;;;;4.10;2.50;;;;;;;0.74;74.35;98558.23;105089;1271;75253;-27
2022/04/11 04:16:33;;;;;;;3.10;1.90;;;;;;;0.88;73.31;98562.32;104887;1272;75874;-27
2022/04/11 04:19:05;;;;;;;5.70;3.00;;;;;;;0.78;73.65;98560.95;104964;1271;74499;-27
2022/04/11 04:21:35;;;;;;;4.70;2.90;;;;;;;0.71;74.07;98561.27;105015;1271;61105;-28
2022/04/11 04:24:05;;;;;;;4.60;2.10;;;;;;;0.46;74.97;98550.84;104811;1271;61073;-27
2022/04/11 04:26:35;;;;;;;8.80;3.20;;;;;;;0.38;76.11;98561.15;104908;1271;75396;-27
2022/04/11 04:29:07;;;;;;;5.70;2.70;;;;;;;0.40;76.68;98571.13;105055;1271;76147;-27
2022/04/11 04:31:40;;;;;;;3.80;2.60;;;;;;;0.75;75.51;98573.06;104947;1271;73457;-27
2022/04/11 04:34:09;;;;;;;7.00;2.70;;;;;;;1.01;74.35;98580.98;104825;1271;61130;-27
2022/04/11 04:36:41;;;;;;;3.70;2.60;;;;;;;0.89;74.74;98583.63;104920;1271;61131;-27
2022/04/11 04:39:11;;;;;;;7.00;2.70;;;;;;;0.77;75.17;98585.08;104942;1271;75296;-27
2022/04/11 04:41:42;;;;;;;7.80;3.10;;;;;;;0.68;75.61;98592.50;104930;1271;75844;-27
2022/04/11 04:44:11;;;;;;;7.50;3.70;;;;;;;0.64;76.07;98592.17;105103;1271;74615;-27
2022/04/11 04:46:44;;;;;;;4.30;2.50;;;;;;;0.70;76.23;98596.17;105170;1271;61146;-27
2022/04/11 04:49:21;;;;;;;5.30;2.80;;;;;;;1.19;74.63;98600.10;105113;1271;61631;-27
2022/04/11 04:51:53;;;;;;;6.80;3.10;;;;;;;1.53;73.05;98604.77;105142;1271;75515;-27
2022/04/11 04:54:22;;;;;;;9.70;3.20;;;;;;;1.33;73.17;98604.90;105024;1271;75120;-27
2022/04/11 04:56:52;;;;;;;4.60;2.50;;;;;;;1.16;73.90;98610.54;105118;1271;74726;-27
2022/04/11 04:59:25;;;;;;;6.20;3.30;;;;;;;1.17;74.30;98609.30;105137;1271;61016;-26
2022/04/11 05:01:56;;;;;;;6.50;3.50;;;;;;;1.12;74.08;98618.08;105145;1271;61143;-26
2022/04/11 05:04:26;;;;;;;6.70;3.00;;;;;;;1.03;74.37;98615.30;105132;1271;75542;-26
2022/04/11 05:06:56;;;;;;;8.70;3.00;;;;;;;1.19;74.62;98627.30;105069;1271;76063;-26
2022/04/11 05:09:26;;;;;;;5.50;2.70;;;;;;;1.62;72.66;98628.63;104907;1271;74283;-27
2022/04/11 05:11:55;;;;;;;8.10;3.20;;;;;;;2.04;70.80;98634.30;104997;1271;61145;-29
2022/04/11 05:14:26;;;;;;;5.30;2.40;;;;;;;2.05;70.88;98630.97;104948;1271;61150;-27
2022/04/11 05:17:02;;;;;;;6.40;2.70;;;;;;;2.07;70.89;98634.30;105035;1271;75834;-29
2022/04/11 05:19:31;;;;;;;3.90;2.80;;;;;;;2.03;71.17;98638.43;105145;1271;75753;-29
2022/04/11 05:22:06;;;;;;;7.70;3.30;;;;;;;1.85;71.17;98635.06;104990;1271;74383;-27
2022/04/11 05:24:35;;;;;;;5.20;3.00;;;;;;;1.72;71.32;98642.13;104714;1271;61023;-28
2022/04/11 05:27:04;;;;;;;5.20;3.50;;;;;;;1.53;72.03;98636.59;105125;1271;61226;-27
2022/04/11 05:29:34;;;;;;;3.40;2.30;;;;;;;1.57;72.23;98639.80;105049;1271;75340;-27
2022/04/11 05:32:05;;;;;;;9.40;2.50;;;;;;;1.75;71.98;98640.92;105044;1271;76062;-28
2022/04/11 05:34:34;;;;;;;4.80;1.80;;;;;;;2.45;70.31;98641.87;105023;1274;73514;-28
2022/04/11 05:37:06;;;;;;;7.30;3.10;;;;;;;2.87;68.53;98640.09;105138;1271;61121;-30
2022/04/11 05:39:35;;;;;;;5.50;2.80;;;;;;;2.73;68.14;98639.48;105079;1271;62105;-29
2022/04/11 05:42:06;;;;;;;8.10;2.90;;;;;;;2.81;68.49;98645.54;105044;1271;75533;-29
2022/04/11 05:44:35;;;;;;;6.30;3.10;;;;;;;2.87;69.22;98645.56;104705;1270;76027;-29
2022/04/11 05:47:05;;;;;;;5.20;3.20;;;;;;;2.78;69.43;98643.31;104924;1271;73340;-28
2022/04/11 05:49:40;;;;;;;4.90;3.00;;;;;;;2.88;69.12;98636.59;105000;1271;61039;-29
2022/04/11 05:52:13;;;;;;;5.30;2.40;;;;;;;2.95;68.92;98641.39;104882;1271;61898;-29
2022/04/11 05:54:41;;;;;;;6.80;2.70;;;;;;;3.15;68.28;98640.57;104817;1272;75593;-26
2022/04/11 05:57:12;;;;;;;7.10;3.70;;;;;;;3.31;67.89;98640.02;105086;1271;76166;-29
2022/04/11 05:59:41;;;;;;;6.90;3.00;;;;;;;3.34;67.97;98644.61;105127;1271;73386;-27
2022/04/11 06:02:11;;;;;;;6.60;3.30;;;;;;;3.57;67.60;98642.41;104987;1271;60986;-26
2022/04/11 06:04:56;;;;;;;4.80;2.70;;;;;;;3.60;66.18;98649.84;104947;1271;61009;-29
2022/04/11 06:07:30;;;;;;;7.60;3.10;;;;;;;3.93;67.01;98650.64;105014;1271;75581;-29
2022/04/11 06:10:05;;;;;;;5.20;2.70;;;;;;;4.19;66.01;98650.41;105105;1271;75991;-29
2022/04/11 06:12:36;;;;;;;5.10;2.80;;;;;;;4.24;65.75;98647.23;105052;1274;74490;-27
2022/04/11 06:15:08;;;;;;;4.80;3.10;;;;;;;4.32;64.07;98653.27;105154;1271;61438;-28
2022/04/11 06:17:38;;;;;;;4.90;3.50;;;;;;;4.46;62.96;98652.77;104842;1271;62321;-28
2022/04/11 06:20:10;;;;;;;9.10;3.40;;;;;;;4.19;63.41;98654.90;105104;1271;74484;-26
2022/04/11 06:22:40;;;;;;;7.90;2.70;;;;;;;4.24;63.56;98661.27;104643;1271;75921;-26
2022/04/11 06:25:17;;;;;;;5.60;2.50;;;;;;;4.36;62.74;98664.14;104843;1271;74777;-26
2022/04/11 06:28:06;;;;;;;5.60;1.90;;;;;;;4.22;62.97;98666.58;104897;1271;61503;-26
2022/04/11 06:30:35;;;;;;;8.70;3.10;;;;;;;4.12;63.79;98672.67;104946;1271;61858;-26
2022/04/11 06:33:05;;;;;;;8.40;2.30;;;;;;;4.08;64.28;98673.09;104930;1271;75562;-26
2022/04/11 06:35:34;;;;;;;10.10;3.10;;;;;;;4.27;64.14;98667.63;104686;1274;75999;-27
2022/04/11 06:38:03;;;;;;;5.30;2.80;;;;;;;4.32;63.54;98668.91;104952;1271;73224;-27
2022/04/11 06:40:33;;;;;;;3.90;3.20;;;;;;;4.53;63.33;98670.70;104815;1272;61478;-27
2022/04/11 06:43:02;;;;;;;7.80;3.70;;;;;;;4.69;63.21;98672.80;104907;1271;62041;-27
2022/04/11 06:45:42;;;;;;;4.90;3.10;;;;;;;4.98;63.90;98677.66;105014;1271;75631;-28
2022/04/11 06:48:14;;;;;;;4.10;2.70;;;;;;;5.05;60.79;98678.73;105027;1270;74957;-29
2022/04/11 06:50:44;;;;;;;9.00;3.60;;;;;;;5.15;61.58;98677.44;104934;1271;74374;-29
2022/04/11 06:53:19;;;;;;;7.30;3.30;;;;;;;5.18;60.84;98677.77;104913;1271;61131;-30
2022/04/11 06:55:48;;;;;;;7.50;3.70;;;;;;;5.38;61.13;98683.55;104751;1271;61071;-28
2022/04/11 06:58:18;;;;;;;3.40;2.40;;;;;;;5.43;61.32;98691.64;104938;1273;75356;-27
2022/04/11 07:00:47;;;;;;;10.90;4.20;;;;;;;5.61;60.97;98694.29;104883;1272;76030;-25
2022/04/11 07:03:17;;;;;;;6.50;3.40;;;;;;;5.83;60.19;98700.05;104909;1271;75253;-28
2022/04/11 07:05:47;;;;;;;8.50;2.90;;;;;;;5.74;58.33;98696.85;105089;1271;61140;-26
2022/04/11 07:08:16;;;;;;;9.40;4.10;;;;;;;5.83;57.97;98694.02;105084;1274;61198;-28
2022/04/11 07:10:47;;;;;;;8.00;2.80;;;;;;;5.90;57.45;98700.43;104967;1274;75974;-27
2022/04/11 07:13:16;;;;;;;6.10;2.70;;;;;;;6.09;56.72;98700.52;104532;1271;445127;-27
2022/04/11 07:15:46;;;;;;;9.40;3.80;;;;;;;6.18;56.15;98698.71;104905;1271;74173;-28
2022/04/11 07:18:15;;;;;;;5.20;3.40;;;;;;;5.92;56.41;98696.67;105034;1271;61123;-26
2022/04/11 07:20:46;;;;;;;5.90;2.80;;;;;;;6.33;56.71;98696.71;104923;1271;61120;-27
2022/04/11 07:23:16;;;;;;;6.10;3.60;;;;;;;6.54;56.48;98697.81;104969;1271;75510;-26
2022/04/11 07:25:45;;;;;;;7.40;3.00;;;;;;;6.42;57.16;98697.08;104914;1271;76001;-26
2022/04/11 07:28:22;;;;;;;7.90;2.90;;;;;;;6.71;55.80;98698.02;105092;1271;74397;-27
2022/04/11 07:30:51;;;;;;;4.10;1.90;;;;;;;6.59;55.99;98703.66;105031;1271;61028;-27
2022/04/11 07:33:20;;;;;;;9.00;2.40;;;;;;;6.64;53.62;98704.86;105072;1271;61108;-27
2022/04/11 07:35:49;;;;;;;8.80;2.90;;;;;;;6.60;52.15;98699.63;105163;1271;75546;-26
2022/04/11 07:38:19;;;;;;;9.10;2.80;;;;;;;6.49;53.46;98701.45;105132;1271;76011;-27
2022/04/11 07:40:49;;;;;;;7.30;3.50;;;;;;;6.66;54.10;98695.63;105129;1271;73145;-27
2022/04/11 07:43:18;;;;;;;6.90;4.30;;;;;;;6.97;56.53;98693.19;105140;1271;61019;-26
2022/04/11 07:45:48;;;;;;;4.40;2.40;;;;;;;6.87;54.52;98694.77;105145;1271;62082;-26
2022/04/11 07:48:17;;;;;;;6.00;2.70;;;;;;;6.84;54.40;98700.38;105090;1271;74269;-26
2022/04/11 07:50:46;;;;;;;4.00;2.40;;;;;;;6.93;55.47;98692.97;104826;1271;75977;-26
2022/04/11 07:53:16;;;;;;;4.60;2.40;;;;;;;6.62;54.53;98691.90;104875;1271;74435;-26
2022/04/11 07:55:46;;;;;;;5.40;2.80;;;;;;;6.59;54.95;98680.20;104839;1271;62005;-26
2022/04/11 07:58:16;;;;;;;4.90;2.90;;;;;;;6.35;54.38;98696.56;104923;1271;62020;-26
2022/04/11 08:00:52;;;;;;;6.60;3.20;;;;;;;6.58;53.85;98691.17;105054;1271;75636;-26
2022/04/11 08:03:22;;;;;;;6.20;2.70;;;;;;;6.67;53.65;98679.52;105093;1271;73970;-26
2022/04/11 08:05:51;;;;;;;5.60;2.20;;;;;;;6.64;52.46;98687.10;104938;1271;73496;-26
2022/04/11 08:08:20;;;;;;;4.70;2.40;;;;;;;6.96;52.35;98672.90;105134;1271;62083;-26
2022/04/11 08:11:14;;;;;;;4.40;2.30;;;;;;;6.80;51.60;98681.52;105104;1271;61936;-26
2022/04/11 08:13:50;;;;;;;9.40;2.40;;;;;;;7.11;53.13;98690.34;104858;1271;75597;-26
2022/04/11 08:16:39;;;;;;;5.10;2.70;;;;;;;7.48;54.65;98688.64;104863;1271;76886;-26
2022/04/11 08:19:09;;;;;;;7.90;2.60;;;;;;;7.55;54.80;98689.55;104903;1271;74083;-26
2022/04/11 08:21:40;;;;;;;3.80;2.10;;;;;;;7.50;52.05;98684.54;104908;1271;62041;-26
2022/04/11 08:24:14;;;;;;;7.20;2.30;;;;;;;7.33;49.87;98686.85;105087;1271;61112;-26
2022/04/11 08:26:44;;;;;;;4.40;2.20;;;;;;;7.77;49.92;98690.64;105167;1271;75626;-26
2022/04/11 08:29:13;;;;;;;4.00;2.40;;;;;;;8.09;48.85;98683.59;105158;1271;76039;-25
2022/04/11 08:31:42;;;;;;;7.70;3.00;;;;;;;7.95;49.68;98672.73;105145;1272;73419;-26
2022/04/11 08:34:11;;;;;;;4.90;2.40;;;;;;;7.79;51.34;98677.01;105162;1271;61243;-26
2022/04/11 08:36:56;;;;;;;6.70;2.50;;;;;;;7.84;51.28;98673.87;105136;1271;62888;-26
2022/04/11 08:39:25;;;;;;;5.20;2.10;;;;;;;7.51;50.03;98675.81;105139;1271;74866;-27
2022/04/11 08:41:59;;;;;;;5.60;2.40;;;;;;;7.47;45.59;98676.65;105106;1271;76055;-26
2022/04/11 08:44:40;;;;;;;6.50;2.80;;;;;;;7.25;50.96;98681.34;104957;1271;74453;-28
2022/04/11 08:47:09;;;;;;;4.00;2.20;;;;;;;7.12;48.59;98664.55;104843;1271;61699;-28
2022/04/11 08:49:39;;;;;;;3.30;1.90;;;;;;;7.08;46.44;98687.48;105020;1271;61119;-27
2022/04/11 08:52:08;;;;;;;4.50;1.80;;;;;;;7.18;45.57;98688.47;104949;1271;75646;-26
2022/04/11 08:54:39;;;;;;;3.40;2.20;;;;;;;7.86;46.11;98676.46;104846;1271;74973;-27
2022/04/11 08:57:08;;;;;;;4.40;2.00;;;;;;;7.49;46.82;98679.80;105082;1271;73740;-28
2022/04/11 08:59:38;;;;;;;3.00;1.90;;;;;;;7.12;45.03;98676.77;105150;1271;61113;-28
2022/04/11 09:02:10;;;;;;;3.70;1.90;;;;;;;6.86;43.78;98703.18;105149;1271;61770;-29
2022/04/11 09:04:51;;;;;;;5.50;3.10;;;;;;;6.87;41.58;98698.06;105150;1271;75929;-29
2022/04/11 09:07:20;;;;;;;4.40;2.50;;;;;;;7.59;43.65;98691.97;105138;1271;76019;-28
2022/04/11 09:09:50;;;;;;;2.40;1.90;;;;;;;7.75;42.30;98697.39;105073;1271;74133;-27
2022/04/11 09:12:22;;;;;;;7.40;1.90;;;;;;;7.45;44.33;98692.86;104868;1274;60988;-26
2022/04/11 09:14:53;;;;;;;5.90;3.00;;;;;;;7.05;46.47;98702.50;104781;1271;61880;-27
2022/04/11 09:17:24;;;;;;;3.50;1.70;;;;;;;6.83;46.00;98709.06;104738;1271;76532;-27
2022/04/11 09:20:07;;;;;;;4.30;2.00;;;;;;;6.83;44.46;98705.11;105018;1271;76084;-27
2022/04/11 09:23:01;;;;;;;3.80;1.80;;;;;;;6.85;43.66;98713.57;104926;1271;74447;-27
2022/04/11 09:25:47;;;;;;;5.50;1.90;;;;;;;7.05;44.22;98691.64;105069;1271;61163;-27
2022/04/11 09:28:16;;;;;;;3.30;1.30;;;;;;;7.02;43.41;98698.38;105086;1272;61068;-27
2022/04/11 09:30:46;;;;;;;3.60;1.80;;;;;;;7.28;43.95;98691.17;104993;1271;74775;-27
2022/04/11 09:33:15;;;;;;;6.10;2.00;;;;;;;7.15;44.41;98692.97;105090;1274;75972;-27
2022/04/11 09:35:48;;;;;;;2.90;1.90;;;;;;;6.91;44.83;98703.52;105102;1271;74306;-27
2022/04/11 09:38:18;;;;;;;2.00;1.50;;;;;;;6.74;43.78;98699.70;104945;1274;60987;-27
2022/04/11 09:40:52;;;;;;;4.20;1.90;;;;;;;6.83;44.20;98699.20;104724;1272;61084;-27
2022/04/11 09:43:25;;;;;;;;;;;;;;;6.76;44.64;98700.43;105065;1271;75680;-27
2022/04/11 09:45:55;;;;;;;4.80;2.00;;;;;;;7.07;43.95;98699.61;104795;1274;76043;-27
2022/04/11 09:48:28;;;;;;;2.50;1.30;;;;;;;6.84;41.91;98698.45;104874;1271;75226;-27
2022/04/11 09:51:01;;;;;;;16.40;2.00;;;;;;;6.96;41.55;98696.56;104789;1271;61300;-27
2022/04/11 09:53:34;;;;;;;2.50;1.50;;;;;;;6.98;41.94;98695.70;104882;1271;61130;-27
2022/04/11 09:56:08;;;;;;;3.50;1.80;;;;;;;7.16;41.33;98705.66;104917;1272;75294;-27
2022/04/11 09:58:39;;;;;;;4.90;2.50;;;;;;;7.02;41.84;98713.27;104851;1271;75488;-27
2022/04/11 10:01:10;;;;;;;2.30;1.20;;;;;;;6.94;42.30;98722.58;104993;1271;74393;-27
2022/04/11 10:03:39;;;;;;;4.10;2.00;;;;;;;7.13;42.81;98710.53;105053;1271;61070;-27
2022/04/11 10:06:09;;;;;;;2.60;1.70;;;;;;;7.32;42.96;98717.45;105100;1271;62186;-27
2022/04/11 10:08:38;;;;;;;4.90;2.20;;;;;;;7.46;42.30;98716.83;105111;1271;75527;-27
2022/04/11 10:11:07;;;;;;;3.00;1.60;;;;;;;7.24;42.38;98709.55;105187;1271;75998;-27
2022/04/11 10:13:37;;;;;;;2.50;1.30;;;;;;;7.06;42.31;98707.95;105117;1271;74412;-27
2022/04/11 10:16:13;;;;;;;3.50;1.70;;;;;;;7.19;42.42;98709.97;105091;1271;62068;-25
2022/04/11 10:18:42;;;;;;;3.30;1.40;;;;;;;7.23;43.29;98708.41;105154;1271;61051;-27
2022/04/11 10:21:27;;;;;;;4.00;2.20;;;;;;;7.12;43.51;98711.15;105008;1271;75484;-26
2022/04/11 10:24:05;;;;;;;4.70;2.40;;;;;;;7.06;45.64;98725.02;105067;1272;75713;-27
2022/04/11 10:26:45;;;;;;;5.00;2.00;;;;;;;6.91;45.42;98720.23;105095;1271;74414;-26
2022/04/11 10:29:33;;;;;;;3.80;2.10;;;;;;;6.69;46.02;98717.46;105089;1271;61110;-25
2022/04/11 10:32:22;;;;;;;4.30;2.10;;;;;;;6.63;45.74;98723.91;105032;1271;63516;-28
2022/04/11 10:35:05;;;;;;;4.00;2.60;;;;;;;6.77;45.96;98725.00;104808;1274;75526;-28
2022/04/11 10:37:40;;;;;;;6.60;2.00;;;;;;;6.77;46.04;98712.09;105135;1271;74438;-28
2022/04/11 10:40:15;;;;;;;4.70;2.20;;;;;;;6.83;45.24;98726.68;104956;1271;74129;-27
2022/04/11 10:43:02;;;;;;;12.00;4.10;;;;;;;7.19;45.05;98726.71;104747;1272;61144;-27
2022/04/11 10:45:40;;;;;;;7.00;2.20;;;;;;;7.35;44.95;98730.04;104908;1271;62043;-28
2022/04/11 10:49:05;;;;;;;3.30;1.80;;;;;;;7.59;44.15;98733.24;104729;1274;76428;-26
2022/04/11 10:51:38;;;;;;;3.40;2.10;;;;;;;7.13;43.90;98720.23;104881;1271;75862;-26
2022/04/11 10:54:21;;;;;;;8.80;3.20;;;;;;;6.96;45.69;98729.15;105109;1271;74947;-26
2022/04/11 10:57:31;;;;;;;3.50;1.50;;;;;;;6.98;44.06;98730.04;104919;1271;61147;-27
2022/04/11 11:00:12;;;;;;;4.70;2.60;;;;;;;7.06;44.42;98728.19;104996;1271;62258;-26
2022/04/11 11:05:29;;;;;;;4.70;2.00;;;;;;;7.29;46.04;98722.02;105086;1271;75780;-26
2022/04/11 11:08:14;;;;;;;6.50;2.20;;;;;;;7.69;45.73;98719.77;104918;1271;72838;-26
2022/04/11 11:11:27;;;;;;;10.10;2.20;;;;;;;8.15;46.15;98706.83;104763;1271;61153;-26
2022/04/11 11:14:29;;;;;;;8.00;2.40;;;;;;;8.34;44.30;98689.94;105131;1271;61162;-26
2022/04/11 11:16:58;;;;;;;4.80;2.60;;;;;;;8.60;43.66;98673.77;105104;1271;75536;-26
2022/04/11 11:19:28;;;;;;;4.80;2.20;;;;;;;8.48;44.07;98666.45;104965;1271;76068;-26
2022/04/11 11:21:58;;;;;;;6.80;2.00;;;;;;;7.97;44.12;98670.48;104811;1271;72637;-26
2022/04/11 11:24:27;;;;;;;2.90;1.50;;;;;;;7.85;45.43;98679.84;104655;1271;62045;-26
2022/04/11 11:26:59;;;;;;;3.70;1.80;;;;;;;7.83;44.54;98668.98;104935;1271;61149;-26
2022/04/11 11:29:44;;;;;;;4.70;2.20;;;;;;;7.91;44.64;98663.17;104832;1271;75549;-26
2022/04/11 11:32:14;;;;;;;4.30;2.30;;;;;;;7.69;44.66;98682.64;104896;1271;75739;-26
2022/04/11 11:34:43;;;;;;;6.00;2.70;;;;;;;7.53;45.32;98686.95;104887;1271;73546;-26
2022/04/11 11:37:13;;;;;;;6.30;2.30;;;;;;;7.57;44.92;98681.30;104906;1271;61141;-26
2022/04/11 11:39:45;;;;;;;4.30;1.50;;;;;;;7.69;45.67;98678.84;104885;1271;61036;-26
2022/04/11 11:42:15;;;;;;;7.00;2.70;;;;;;;7.97;45.18;98675.36;104951;1271;75859;-26
2022/04/11 11:44:46;;;;;;;4.30;1.60;;;;;;;7.94;42.80;98682.48;104918;1271;75982;-26
2022/04/11 11:47:16;;;;;;;7.20;1.90;;;;;;;7.80;41.07;98676.09;104679;1272;73428;-26
2022/04/11 11:50:05;;;;;;;2.10;1.50;;;;;;;7.67;41.34;98678.66;104695;1271;61829;-26
2022/04/11 11:52:39;;;;;;;6.10;1.60;;;;;;;7.59;42.27;98683.21;104862;1271;61605;-26
2022/04/11 11:55:08;;;;;;;6.00;2.50;;;;;;;8.05;43.45;98681.80;104984;1271;76374;-26
2022/04/11 11:57:41;;;;;;;7.90;2.90;;;;;;;7.73;43.02;98670.02;105000;1271;75826;-26
2022/04/11 12:00:11;;;;;;;5.50;2.80;;;;;;;7.77;44.19;98684.12;104869;1271;73344;-26
2022/04/11 12:05:39;;;;;;;4.60;2.00;;;;;;;8.63;42.15;98681.34;104913;1271;61978;-26